Time;durP1;ratioP1;P1;durP2;ratioP2;P2;SDS_P1;SDS_P2;PMS_P1;PMS_P2;Temp;Humidity;BMP_temperature;BMP_pressure;BME280_temperature;BME280_humidity;BME280_pressure;Samples;Min_cycle;Max_cycle;Signal;HPM_P1;HPM_P2
2023/08/04 00:00:37;;;;;;;8.93;3.70;;;;;;;28.03;55.20;98020.75;2085562;28;20684;-51
2023/08/04 00:01:38;;;;;;;8.68;3.70;;;;;;;28.04;55.39;98016.94;2086723;28;20865;-53
2023/08/04 00:02:41;;;;;;;4.65;2.83;;;;;;;28.05;55.34;98015.00;2085631;28;20207;-52
2023/08/04 00:03:42;;;;;;;6.60;2.33;;;;;;;28.05;55.40;98015.00;2084903;28;20052;-54
2023/08/04 00:04:46;;;;;;;5.38;2.67;;;;;;;28.05;55.25;98013.13;2083589;28;20060;-54
2023/08/04 00:05:47;;;;;;;8.68;3.25;;;;;;;28.03;55.47;98007.13;2082723;28;20207;-53
2023/08/04 00:06:49;;;;;;;10.05;3.45;;;;;;;28.01;55.31;98016.69;2086343;28;20052;-53
2023/08/04 00:07:50;;;;;;;10.18;3.17;;;;;;;28.00;55.23;98013.16;2085098;28;20148;-51
2023/08/04 00:08:52;;;;;;;4.20;2.65;;;;;;;28.01;55.31;98013.97;2084331;28;20063;-53
2023/08/04 00:09:52;;;;;;;7.05;2.83;;;;;;;28.01;55.14;98014.75;2085963;28;20160;-52
2023/08/04 00:10:54;;;;;;;9.82;3.13;;;;;;;28.03;55.10;98009.84;2083359;28;20098;-52
2023/08/04 00:11:55;;;;;;;7.28;3.78;;;;;;;28.02;55.01;98018.31;2086403;28;20109;-54
2023/08/04 00:12:56;;;;;;;5.55;2.53;;;;;;;27.98;55.15;98018.06;2085443;28;20041;-50
2023/08/04 00:13:57;;;;;;;6.32;3.25;;;;;;;27.95;55.26;98026.78;2084919;28;20088;-56
2023/08/04 00:14:59;;;;;;;5.60;2.90;;;;;;;27.92;54.97;98021.91;2085121;28;21396;-48
2023/08/04 00:16:06;;;;;;;8.18;3.72;;;;;;;27.92;54.64;98026.53;2082434;28;20056;-55
2023/08/04 00:17:08;;;;;;;4.90;2.95;;;;;;;27.94;54.65;98019.69;2085195;28;20414;-52
2023/08/04 00:18:10;;;;;;;6.00;2.55;;;;;;;27.97;54.02;98012.88;2083063;28;20313;-50
2023/08/04 00:19:12;;;;;;;6.40;3.28;;;;;;;27.96;54.24;98019.44;2084448;28;20691;-49
2023/08/04 00:20:13;;;;;;;6.57;2.90;;;;;;;27.98;53.97;98011.78;2085258;28;20355;-54
2023/08/04 00:21:14;;;;;;;5.75;2.92;;;;;;;27.98;53.75;98015.34;2085812;28;20514;-49
2023/08/04 00:22:15;;;;;;;8.50;3.22;;;;;;;27.96;53.87;98013.97;2080331;28;20037;-54
2023/08/04 00:23:17;;;;;;;7.78;2.28;;;;;;;27.95;53.72;98026.78;2084064;28;20048;-53
2023/08/04 00:24:17;;;;;;;4.53;2.63;;;;;;;27.95;53.32;98018.63;2084357;28;20721;-51
2023/08/04 00:25:18;;;;;;;5.95;3.00;;;;;;;27.98;53.32;98018.06;2084717;28;20055;-53
2023/08/04 00:26:20;;;;;;;8.20;3.70;;;;;;;27.97;53.10;98013.72;2084769;28;20718;-54
2023/08/04 00:27:21;;;;;;;8.32;2.78;;;;;;;27.97;53.25;98015.59;2084509;28;20072;-52
2023/08/04 00:28:22;;;;;;;4.38;2.15;;;;;;;27.99;53.16;98016.13;2086159;28;20052;-53
2023/08/04 00:29:23;;;;;;;7.40;2.50;;;;;;;27.96;53.24;98020.25;2085796;28;20056;-53
2023/08/04 00:30:25;;;;;;;14.02;2.83;;;;;;;27.99;53.01;98024.31;2086120;28;20709;-49
2023/08/04 00:31:25;;;;;;;10.93;3.50;;;;;;;27.99;53.27;98032.50;2086520;28;20382;-52
2023/08/04 00:32:28;;;;;;;5.18;2.63;;;;;;;27.98;52.99;98030.88;2083002;28;20513;-49
2023/08/04 00:33:30;;;;;;;6.93;2.35;;;;;;;27.98;52.86;98028.16;2084210;28;20056;-50
2023/08/04 00:34:32;;;;;;;7.45;2.58;;;;;;;27.91;52.64;98025.72;2086015;28;20052;-52
2023/08/04 00:35:33;;;;;;;11.10;2.78;;;;;;;27.94;52.71;98027.06;2083693;28;20064;-52
2023/08/04 00:36:34;;;;;;;8.13;2.47;;;;;;;27.87;52.61;98021.94;2085101;28;20381;-52
2023/08/04 00:37:35;;;;;;;4.57;1.85;;;;;;;27.80;52.19;98014.06;2083882;28;20080;-50
2023/08/04 00:38:37;;;;;;;12.00;3.00;;;;;;;27.83;52.56;98013.50;2086567;28;20056;-50
2023/08/04 00:39:38;;;;;;;7.05;3.33;;;;;;;27.84;52.13;98012.41;2084864;28;20064;-53
2023/08/04 00:40:39;;;;;;;14.73;3.25;;;;;;;27.84;52.19;98003.41;2084910;28;21351;-51
2023/08/04 00:41:40;;;;;;;7.82;2.28;;;;;;;27.77;51.99;98009.13;2085667;28;20359;-50
2023/08/04 00:42:42;;;;;;;9.52;2.70;;;;;;;27.85;52.05;97994.13;2083930;28;20483;-49
2023/08/04 00:43:43;;;;;;;7.10;2.35;;;;;;;27.86;52.04;98012.13;2086326;28;20064;-52
2023/08/04 00:44:43;;;;;;;9.13;2.88;;;;;;;27.85;52.07;98010.47;2083960;28;20057;-55
2023/08/04 00:45:45;;;;;;;4.70;2.00;;;;;;;27.87;51.96;98013.75;2085972;28;20399;-52
2023/08/04 00:46:46;;;;;;;9.18;2.38;;;;;;;27.92;52.05;98008.28;2084841;28;20069;-52
2023/08/04 00:47:48;;;;;;;8.70;2.55;;;;;;;27.90;51.88;98010.47;2086360;28;20044;-53
2023/08/04 00:48:50;;;;;;;5.35;2.75;;;;;;;27.94;51.76;98006.06;2087985;28;20067;-51
2023/08/04 00:49:53;;;;;;;7.15;2.20;;;;;;;27.95;52.05;98012.34;2086309;28;20048;-50
2023/08/04 00:50:53;;;;;;;9.60;3.00;;;;;;;27.89;52.24;98003.41;2087073;28;20072;-53
2023/08/04 00:51:55;;;;;;;10.60;2.75;;;;;;;27.89;52.07;98005.28;2086715;28;20060;-53
2023/08/04 00:52:56;;;;;;;9.88;3.25;;;;;;;27.92;52.10;98002.03;2086452;28;20721;-50
2023/08/04 00:53:57;;;;;;;7.75;3.35;;;;;;;27.89;52.20;98002.56;2082103;28;20055;-51
2023/08/04 00:54:59;;;;;;;5.05;2.28;;;;;;;27.89;51.99;98000.66;2082966;28;20099;-51
2023/08/04 00:55:59;;;;;;;6.72;2.40;;;;;;;27.88;52.06;97998.22;2082676;28;20107;-51
2023/08/04 00:57:02;;;;;;;5.97;2.03;;;;;;;27.89;52.06;97997.94;2085416;28;20593;-49
2023/08/04 00:58:03;;;;;;;4.95;2.60;;;;;;;27.84;52.09;97993.31;2084916;28;20139;-54
2023/08/04 00:59:03;;;;;;;9.45;2.92;;;;;;;27.87;52.10;97991.13;2086152;28;20056;-49
2023/08/04 01:00:06;;;;;;;5.25;2.35;;;;;;;27.85;52.14;97994.94;2087494;28;20542;-51
2023/08/04 01:01:07;;;;;;;7.78;2.65;;;;;;;27.84;52.13;97990.59;2083854;28;20074;-49
2023/08/04 01:02:08;;;;;;;6.47;2.58;;;;;;;27.86;52.16;97990.31;2084944;28;20462;-55
2023/08/04 01:03:10;;;;;;;6.32;2.40;;;;;;;27.84;52.34;97992.50;2082592;28;20048;-52
2023/08/04 01:04:12;;;;;;;6.32;1.88;;;;;;;27.80;52.55;97991.41;2085457;28;20128;-55
2023/08/04 01:05:14;;;;;;;7.18;2.08;;;;;;;27.79;52.29;97990.63;2086512;28;20069;-53
2023/08/04 01:06:30;;;;;;;5.55;2.45;;;;;;;27.79;52.37;97987.06;2086260;28;20045;-55
2023/08/04 01:07:36;;;;;;;6.60;1.85;;;;;;;27.84;52.04;97985.16;2083363;28;20079;-54
2023/08/04 01:08:42;;;;;;;4.18;1.95;;;;;;;27.82;52.06;97984.59;2086591;28;20419;-50
2023/08/04 01:09:51;;;;;;;3.97;1.55;;;;;;;27.75;52.15;97983.22;2085717;28;20199;-53
2023/08/04 01:10:57;;;;;;;4.75;2.35;;;;;;;27.76;52.26;97976.72;2084394;28;20052;-52
2023/08/04 01:12:06;;;;;;;3.38;2.00;;;;;;;27.74;52.20;97979.69;2083419;28;20363;-53
2023/08/04 01:13:09;;;;;;;3.60;1.55;;;;;;;27.74;52.02;97978.91;2083261;28;20053;-54
2023/08/04 01:14:11;;;;;;;5.70;3.53;;;;;;;27.75;51.75;97973.19;2085153;28;20045;-49
2023/08/04 01:15:14;;;;;;;5.82;2.08;;;;;;;27.74;51.85;97974.25;2085564;28;20076;-49
2023/08/04 01:16:16;;;;;;;8.30;1.50;;;;;;;27.74;51.10;97971.53;2084591;28;20415;-49
2023/08/04 01:17:25;;;;;;;5.53;1.90;;;;;;;27.73;51.00;97967.19;2083491;28;20093;-51
2023/08/04 01:18:27;;;;;;;7.00;2.47;;;;;;;27.73;51.14;97972.63;2084730;28;20048;-53
2023/08/04 01:19:29;;;;;;;9.05;2.15;;;;;;;27.71;51.29;97971.28;2081804;28;20561;-54
2023/08/04 01:20:31;;;;;;;4.80;2.25;;;;;;;27.74;51.14;97970.72;2084246;28;20487;-53
2023/08/04 01:21:40;;;;;;;7.78;2.45;;;;;;;27.66;51.44;97971.28;2086153;28;20075;-53
2023/08/04 01:22:41;;;;;;;6.38;2.70;;;;;;;27.71;51.41;97963.09;2086118;28;20118;-49
2023/08/04 01:23:43;;;;;;;4.40;1.85;;;;;;;27.70;51.40;97962.28;2082489;28;20044;-54
2023/08/04 01:24:44;;;;;;;4.60;2.17;;;;;;;27.67;51.29;97965.59;2083736;28;20041;-52
2023/08/04 01:25:46;;;;;;;4.00;1.52;;;;;;;27.71;51.09;97961.19;2084960;28;20049;-49
2023/08/04 01:26:49;;;;;;;4.53;1.75;;;;;;;27.75;51.12;97961.44;2083406;28;20072;-54
2023/08/04 01:27:55;;;;;;;4.72;2.63;;;;;;;27.71;51.45;97968.56;2085888;28;20059;-50
2023/08/04 01:28:57;;;;;;;6.50;2.10;;;;;;;27.65;51.26;97961.50;2085177;28;20114;-48
2023/08/04 01:30:01;;;;;;;7.20;1.55;;;;;;;27.68;51.61;97961.75;2084990;28;20110;-53
2023/08/04 01:31:03;;;;;;;5.68;1.95;;;;;;;27.68;51.47;97967.19;2084963;28;20056;-49
2023/08/04 01:32:05;;;;;;;7.63;2.65;;;;;;;27.69;51.47;97968.81;2086525;28;20420;-52
2023/08/04 01:33:07;;;;;;;4.05;2.13;;;;;;;27.67;51.36;97971.03;2078124;28;20510;-52
2023/08/04 01:34:07;;;;;;;6.88;2.30;;;;;;;27.66;51.57;97968.56;2084122;28;20275;-52
2023/08/04 01:35:10;;;;;;;8.05;3.22;;;;;;;27.58;52.02;97962.63;2086637;28;20445;-54
2023/08/04 01:36:11;;;;;;;7.35;2.47;;;;;;;27.63;51.82;97967.22;2084926;28;20048;-49
2023/08/04 01:37:13;;;;;;;7.57;2.83;;;;;;;27.62;51.92;97971.03;2084471;28;20518;-53
2023/08/04 01:38:15;;;;;;;9.52;2.60;;;;;;;27.56;51.83;97964.00;2084325;28;20048;-51
2023/08/04 01:39:15;;;;;;;6.07;2.05;;;;;;;27.57;52.04;97969.16;2075086;28;21477;-49
2023/08/04 01:40:17;;;;;;;7.30;2.10;;;;;;;27.57;52.07;97971.06;2080564;28;20036;-51
2023/08/04 01:41:18;;;;;;;8.20;2.47;;;;;;;27.54;51.59;97967.00;2085285;28;20291;-51
2023/08/04 01:42:19;;;;;;;3.72;1.83;;;;;;;27.53;52.15;97972.72;2084608;28;20053;-52
2023/08/04 01:43:21;;;;;;;8.52;2.70;;;;;;;27.57;51.97;97966.44;2083797;28;20037;-52
2023/08/04 01:44:22;;;;;;;4.90;2.80;;;;;;;27.60;52.16;97975.94;2085122;28;20131;-50
2023/08/04 01:45:23;;;;;;;5.47;1.70;;;;;;;27.58;52.25;97962.63;2084917;28;20255;-54
2023/08/04 01:46:25;;;;;;;6.00;1.92;;;;;;;27.57;52.27;97968.34;2086086;28;20057;-54
2023/08/04 01:47:25;;;;;;;7.60;2.45;;;;;;;27.56;52.71;97961.28;2083905;28;20135;-53
2023/08/04 01:48:27;;;;;;;3.80;2.08;;;;;;;27.58;52.67;97961.78;2085786;28;20056;-51
2023/08/04 01:49:28;;;;;;;4.70;1.77;;;;;;;27.58;52.63;97961.78;2080025;28;20250;-50
2023/08/04 01:50:30;;;;;;;9.52;2.28;;;;;;;27.56;52.86;97958.56;2086764;28;20082;-49
2023/08/04 01:51:30;;;;;;;8.00;2.00;;;;;;;27.65;52.59;97956.88;2084522;28;20045;-49
2023/08/04 01:52:33;;;;;;;5.35;2.40;;;;;;;27.66;52.28;97958.47;2088223;28;20456;-51
2023/08/04 01:53:34;;;;;;;3.95;2.05;;;;;;;27.66;52.55;97961.22;2088414;28;20354;-52
2023/08/04 01:54:36;;;;;;;5.22;2.60;;;;;;;27.61;52.71;97958.53;2088991;28;20465;-51
2023/08/04 01:55:37;;;;;;;5.15;1.95;;;;;;;27.58;52.51;97950.91;2086133;28;20063;-53
2023/08/04 01:56:38;;;;;;;4.60;2.10;;;;;;;27.55;53.13;97962.34;2087549;28;20491;-53
2023/08/04 01:57:39;;;;;;;6.60;1.65;;;;;;;27.56;52.74;97959.34;2084061;28;20075;-49
2023/08/04 01:58:41;;;;;;;5.88;2.78;;;;;;;27.54;53.09;97956.09;2079793;28;20057;-52
2023/08/04 01:59:42;;;;;;;5.70;1.95;;;;;;;27.54;53.12;97960.72;2078911;28;20098;-53
2023/08/04 02:00:44;;;;;;;3.75;1.70;;;;;;;27.57;52.97;97965.63;2078851;28;20056;-54
2023/08/04 02:01:44;;;;;;;4.95;1.67;;;;;;;27.56;53.29;97966.72;2077175;28;20221;-50
2023/08/04 02:02:45;;;;;;;6.32;2.53;;;;;;;27.57;53.01;97960.97;2079664;28;20053;-53
2023/08/04 02:03:47;;;;;;;5.57;2.00;;;;;;;27.55;53.40;97962.34;2076508;28;20507;-52
2023/08/04 02:04:47;;;;;;;5.00;1.92;;;;;;;27.55;53.33;97962.34;2077309;28;20045;-53
2023/08/04 02:05:49;;;;;;;4.57;1.88;;;;;;;27.53;53.25;97959.09;2079174;28;20078;-50
2023/08/04 02:06:50;;;;;;;4.78;1.98;;;;;;;27.53;53.32;97964.56;2074250;28;20651;-54
2023/08/04 02:07:53;;;;;;;4.95;1.77;;;;;;;27.56;53.18;97964.00;2077268;28;20079;-51
2023/08/04 02:08:54;;;;;;;4.85;2.35;;;;;;;27.56;53.14;97955.81;2076972;28;20126;-54
2023/08/04 02:09:55;;;;;;;4.60;1.80;;;;;;;27.59;53.11;97963.44;2078418;28;20518;-53
2023/08/04 02:10:56;;;;;;;6.32;2.92;;;;;;;27.56;53.37;97953.91;2078093;28;20072;-54
2023/08/04 02:11:58;;;;;;;6.55;2.70;;;;;;;27.53;53.30;97948.22;2076864;28;20419;-48
2023/08/04 02:12:59;;;;;;;8.32;2.17;;;;;;;27.55;53.38;97946.84;2084174;28;20052;-50
2023/08/04 02:14:01;;;;;;;5.68;2.30;;;;;;;27.53;53.51;97950.94;2085623;28;20985;-52
2023/08/04 02:15:01;;;;;;;6.45;2.10;;;;;;;27.53;53.60;97957.19;2085734;28;20148;-51
2023/08/04 02:16:04;;;;;;;3.95;1.67;;;;;;;27.48;53.83;97949.03;2086330;28;21439;-54
2023/08/04 02:17:04;;;;;;;4.70;1.85;;;;;;;27.43;53.91;97950.97;2085843;28;20088;-52
2023/08/04 02:18:06;;;;;;;6.97;2.00;;;;;;;27.50;53.74;97944.13;2080862;28;20049;-52
2023/08/04 02:19:08;;;;;;;6.88;2.35;;;;;;;27.51;54.05;97950.41;2085166;28;21074;-53
2023/08/04 02:20:11;;;;;;;4.70;1.75;;;;;;;27.51;53.73;97944.94;2084372;28;20136;-51
2023/08/04 02:21:12;;;;;;;4.88;2.13;;;;;;;27.55;53.88;97948.72;2085702;28;20109;-49
2023/08/04 02:22:14;;;;;;;5.43;2.40;;;;;;;27.54;53.72;97955.28;2086508;28;20044;-52
2023/08/04 02:23:16;;;;;;;5.82;1.75;;;;;;;27.51;53.83;97958.56;2085784;28;20055;-53
2023/08/04 02:24:18;;;;;;;9.73;2.60;;;;;;;27.42;54.29;97952.06;2085320;28;20052;-52
2023/08/04 02:25:19;;;;;;;4.50;2.67;;;;;;;27.35;54.48;97942.25;2086788;28;20131;-53
2023/08/04 02:26:20;;;;;;;6.38;2.20;;;;;;;27.45;54.16;97946.06;2084770;28;20041;-50
2023/08/04 02:27:21;;;;;;;12.32;2.40;;;;;;;27.47;54.28;97952.88;2086471;28;20529;-51
2023/08/04 02:28:23;;;;;;;9.10;2.25;;;;;;;27.49;54.27;97958.84;2083305;28;20055;-50
2023/08/04 02:29:23;;;;;;;4.07;2.10;;;;;;;27.52;54.37;97954.72;2087245;28;20140;-52
2023/08/04 02:30:25;;;;;;;4.13;1.83;;;;;;;27.51;54.21;97950.41;2087133;28;20048;-50
2023/08/04 02:31:28;;;;;;;6.40;1.75;;;;;;;27.45;54.70;97959.69;2087442;28;20094;-50
2023/08/04 02:32:30;;;;;;;5.28;1.92;;;;;;;27.36;54.99;97952.09;2077676;28;20068;-52
2023/08/04 02:33:31;;;;;;;5.45;1.92;;;;;;;27.36;54.79;97941.19;2077937;28;20730;-49
2023/08/04 02:34:33;;;;;;;3.58;2.17;;;;;;;27.40;54.86;97947.69;2078324;28;20049;-49
2023/08/04 02:35:33;;;;;;;7.25;2.13;;;;;;;27.46;54.43;97947.69;2078264;28;20174;-53
2023/08/04 02:36:35;;;;;;;4.95;2.03;;;;;;;27.49;54.58;97947.13;2078677;28;20053;-54
2023/08/04 02:37:36;;;;;;;4.50;1.88;;;;;;;27.50;54.33;97954.22;2074065;28;20354;-53
2023/08/04 02:38:38;;;;;;;5.68;2.33;;;;;;;27.50;54.40;97949.59;2078854;28;20137;-53
2023/08/04 02:39:40;;;;;;;3.47;1.83;;;;;;;27.51;54.69;97955.84;2078274;28;20537;-54
2023/08/04 02:40:41;;;;;;;4.68;2.58;;;;;;;27.52;54.37;97943.84;2077937;28;20057;-53
2023/08/04 02:41:41;;;;;;;5.53;2.25;;;;;;;27.51;54.30;97953.94;2078778;28;20102;-53
2023/08/04 02:42:43;;;;;;;3.67;2.05;;;;;;;27.50;54.40;97949.59;2078456;28;21026;-50
2023/08/04 02:43:44;;;;;;;5.55;2.05;;;;;;;27.51;54.58;97950.41;2081187;28;20480;-53
2023/08/04 02:44:45;;;;;;;5.13;1.77;;;;;;;27.52;54.70;97950.09;2080946;28;20056;-54
2023/08/04 02:45:47;;;;;;;6.07;3.00;;;;;;;27.53;54.61;97945.50;2084136;28;20052;-54
2023/08/04 02:46:49;;;;;;;6.68;1.65;;;;;;;27.53;54.39;97950.94;2086677;28;20057;-52
2023/08/04 02:47:50;;;;;;;4.20;2.22;;;;;;;27.52;54.51;97944.66;2088438;28;20101;-53
2023/08/04 02:48:51;;;;;;;3.40;2.72;;;;;;;27.52;54.54;97946.56;2085243;28;20041;-52
2023/08/04 02:49:53;;;;;;;6.20;2.10;;;;;;;27.53;54.38;97949.03;2083290;28;20534;-50
2023/08/04 02:50:59;;;;;;;6.15;1.70;;;;;;;27.52;54.27;97949.28;2085691;28;20045;-49
2023/08/04 02:52:00;;;;;;;4.80;1.80;;;;;;;27.51;54.54;97956.66;2088532;28;20204;-54
2023/08/04 02:53:01;;;;;;;8.88;2.65;;;;;;;27.51;54.41;97953.13;2089051;28;20053;-51
2023/08/04 02:54:04;;;;;;;4.78;2.35;;;;;;;27.52;54.29;97957.47;2087825;28;20499;-51
2023/08/04 02:55:06;;;;;;;4.68;1.88;;;;;;;27.51;54.55;97953.13;2088387;28;20052;-52
2023/08/04 02:56:11;;;;;;;3.42;1.83;;;;;;;27.54;54.32;97960.72;2087925;28;21811;-51
2023/08/04 02:57:12;;;;;;;4.72;1.98;;;;;;;27.53;54.46;97964.56;2088542;28;20427;-51
2023/08/04 02:58:13;;;;;;;3.70;2.08;;;;;;;27.52;54.08;97965.63;2085438;28;20076;-49
2023/08/04 02:59:14;;;;;;;4.00;1.90;;;;;;;27.53;54.27;97959.09;2084594;28;20051;-48
2023/08/04 03:00:16;;;;;;;5.90;2.20;;;;;;;27.53;54.23;97959.91;2087041;28;20986;-50
2023/08/04 03:01:16;;;;;;;6.25;2.85;;;;;;;27.50;54.15;97954.22;2088811;28;20098;-52
2023/08/04 03:02:18;;;;;;;6.70;2.53;;;;;;;27.52;53.90;97952.00;2085788;28;20098;-50
2023/08/04 03:03:19;;;;;;;5.25;1.83;;;;;;;27.53;54.04;97959.91;2088120;28;20044;-51
2023/08/04 03:04:21;;;;;;;4.35;2.10;;;;;;;27.53;54.24;97948.22;2087443;28;20095;-48
2023/08/04 03:05:21;;;;;;;5.78;1.95;;;;;;;27.52;54.10;97947.38;2086005;28;20076;-52
2023/08/04 03:06:23;;;;;;;7.40;2.20;;;;;;;27.55;54.04;97948.72;2084364;28;20045;-49
2023/08/04 03:07:24;;;;;;;4.32;1.60;;;;;;;27.55;53.69;97951.44;2077387;28;20045;-49
2023/08/04 03:08:26;;;;;;;5.70;2.33;;;;;;;27.52;53.95;97952.81;2078464;28;20045;-52
2023/08/04 03:09:29;;;;;;;3.72;1.95;;;;;;;27.54;53.75;97944.38;2078691;28;20057;-49
2023/08/04 03:10:31;;;;;;;3.70;2.17;;;;;;;27.53;54.13;97945.50;2079218;28;20204;-51
2023/08/04 03:11:31;;;;;;;8.63;2.13;;;;;;;27.53;53.56;97948.22;2077278;28;20246;-49
2023/08/04 03:12:33;;;;;;;5.53;1.92;;;;;;;27.50;54.03;97944.13;2077128;28;20053;-51
2023/08/04 03:13:34;;;;;;;4.95;2.13;;;;;;;27.54;53.84;97947.13;2080138;28;20049;-50
2023/08/04 03:14:36;;;;;;;6.63;2.33;;;;;;;27.50;53.47;97946.06;2077802;28;20614;-49
2023/08/04 03:15:37;;;;;;;3.42;1.48;;;;;;;27.52;53.83;97949.28;2081838;28;20056;-49
2023/08/04 03:16:38;;;;;;;6.75;1.70;;;;;;;27.56;53.56;97950.38;2079119;28;20132;-54
2023/08/04 03:17:39;;;;;;;4.82;2.00;;;;;;;27.54;53.51;97947.91;2077873;28;20053;-54
2023/08/04 03:18:41;;;;;;;2.90;2.08;;;;;;;27.48;53.28;97948.22;2078781;28;20056;-49
2023/08/04 03:19:42;;;;;;;6.03;1.98;;;;;;;27.52;53.37;97949.28;2077469;28;20067;-49
2023/08/04 03:20:43;;;;;;;4.90;2.15;;;;;;;27.51;53.52;97947.66;2079570;28;20060;-54
2023/08/04 03:21:44;;;;;;;7.18;2.85;;;;;;;27.51;53.07;97956.66;2079467;28;20060;-54
2023/08/04 03:22:45;;;;;;;4.43;1.77;;;;;;;27.53;53.08;97959.91;2078660;28;20131;-49
2023/08/04 03:23:47;;;;;;;3.83;1.98;;;;;;;27.51;53.22;97951.19;2075930;28;20891;-52
2023/08/04 03:24:49;;;;;;;3.95;1.40;;;;;;;27.50;52.83;97956.94;2078110;28;20171;-54
2023/08/04 03:25:51;;;;;;;4.97;1.90;;;;;;;27.51;52.29;97964.00;2077959;28;20240;-49
2023/08/04 03:26:51;;;;;;;9.27;2.58;;;;;;;27.49;52.51;97966.19;2077973;28;20076;-51
2023/08/04 03:27:53;;;;;;;4.60;1.75;;;;;;;27.48;52.14;97973.56;2080264;28;20772;-49
2023/08/04 03:28:54;;;;;;;4.72;1.50;;;;;;;27.46;52.52;97967.56;2080243;28;20044;-60
2023/08/04 03:29:55;;;;;;;8.63;1.88;;;;;;;27.47;52.17;97974.66;2084666;28;20067;-48
2023/08/04 03:30:56;;;;;;;4.68;1.38;;;;;;;27.43;52.01;97973.56;2088599;28;20101;-51
2023/08/04 03:31:58;;;;;;;7.10;1.98;;;;;;;27.40;51.73;97972.22;2087894;28;20637;-50
2023/08/04 03:32:58;;;;;;;4.03;2.05;;;;;;;27.44;51.86;97971.66;2088313;28;20068;-50
2023/08/04 03:34:00;;;;;;;7.50;2.25;;;;;;;27.44;51.74;97969.75;2087021;28;20064;-52
2023/08/04 03:35:01;;;;;;;3.03;1.30;;;;;;;27.45;51.62;97979.56;2086016;28;20395;-51
2023/08/04 03:36:03;;;;;;;7.60;1.83;;;;;;;27.48;51.60;97980.91;2085984;28;20336;-53
2023/08/04 03:37:05;;;;;;;6.75;2.40;;;;;;;27.50;51.62;97984.19;2085723;28;20048;-53
2023/08/04 03:38:06;;;;;;;6.53;1.98;;;;;;;27.47;51.63;97971.09;2086252;28;20068;-52
2023/08/04 03:39:08;;;;;;;7.53;1.83;;;;;;;27.41;51.15;97978.47;2087075;28;20457;-49
2023/08/04 03:40:11;;;;;;;5.60;1.85;;;;;;;27.42;51.13;97991.00;2087577;28;20040;-52
2023/08/04 03:41:13;;;;;;;5.57;1.63;;;;;;;27.38;51.14;97974.38;2084616;28;22415;-51
2023/08/04 03:42:13;;;;;;;5.00;2.00;;;;;;;27.37;50.81;97982.84;2085724;28;20091;-50
2023/08/04 03:43:15;;;;;;;6.15;2.42;;;;;;;27.38;50.96;97971.66;2086515;28;20044;-52
2023/08/04 03:44:16;;;;;;;5.63;2.15;;;;;;;27.40;51.05;97974.13;2086581;28;20574;-52
2023/08/04 03:45:16;;;;;;;3.97;2.00;;;;;;;27.42;51.33;97979.31;2085706;28;20539;-53
2023/08/04 03:46:18;;;;;;;4.63;1.65;;;;;;;27.41;51.00;97989.34;2084691;28;20076;-49
2023/08/04 03:47:19;;;;;;;2.05;1.45;;;;;;;27.36;50.84;97986.69;2085351;28;20045;-51
2023/08/04 03:48:20;;;;;;;5.75;1.85;;;;;;;27.36;50.88;97982.03;2085777;28;20118;-53
2023/08/04 03:49:21;;;;;;;6.30;1.80;;;;;;;27.39;50.97;97984.22;2085378;28;20076;-49
2023/08/04 03:50:24;;;;;;;6.97;1.60;;;;;;;27.41;51.18;97975.75;2082854;28;20068;-49
2023/08/04 03:51:25;;;;;;;7.45;2.45;;;;;;;27.40;51.19;97988.56;2087317;28;20081;-52
2023/08/04 03:52:26;;;;;;;3.53;1.70;;;;;;;27.38;51.18;97984.47;2086341;28;20780;-50
2023/08/04 03:53:27;;;;;;;6.43;1.83;;;;;;;27.40;51.14;97977.66;2087676;28;20056;-51
2023/08/04 03:54:28;;;;;;;4.57;1.65;;;;;;;27.40;51.32;97985.00;2082624;28;20155;-53
2023/08/04 03:55:31;;;;;;;4.10;1.55;;;;;;;27.45;51.33;97976.03;2084511;28;20051;-54
2023/08/04 03:56:32;;;;;;;7.28;2.38;;;;;;;27.40;51.32;97977.66;2085799;28;20543;-52
2023/08/04 03:57:33;;;;;;;3.95;1.60;;;;;;;27.42;51.55;97979.31;2086908;28;20052;-52
2023/08/04 03:58:34;;;;;;;5.03;1.73;;;;;;;27.44;51.17;97972.47;2086312;28;20049;-50
2023/08/04 03:59:35;;;;;;;4.82;1.45;;;;;;;27.42;51.40;97971.13;2087705;28;20467;-52
2023/08/04 04:00:36;;;;;;;3.75;1.67;;;;;;;27.42;51.37;97979.31;2085907;28;20087;-53
2023/08/04 04:01:38;;;;;;;4.65;1.42;;;;;;;27.44;51.45;97971.66;2086920;28;20048;-54
2023/08/04 04:02:39;;;;;;;4.28;1.30;;;;;;;27.48;51.27;97968.09;2085281;28;20056;-51
2023/08/04 04:03:41;;;;;;;4.50;1.67;;;;;;;27.43;51.19;97970.84;2086659;28;20048;-51
2023/08/04 04:04:42;;;;;;;7.30;1.45;;;;;;;27.46;51.03;97974.91;2086026;28;20079;-52
2023/08/04 04:05:44;;;;;;;3.85;1.90;;;;;;;27.47;51.26;97981.97;2085377;28;20060;-53
2023/08/04 04:06:44;;;;;;;7.28;1.58;;;;;;;27.44;50.68;97991.53;2086615;28;20097;-50
2023/08/04 04:07:46;;;;;;;7.72;2.22;;;;;;;27.42;50.81;98001.09;2084877;28;20102;-54
2023/08/04 04:08:47;;;;;;;7.05;1.98;;;;;;;27.38;50.87;98001.63;2086136;28;20045;-52
2023/08/04 04:09:48;;;;;;;6.20;2.15;;;;;;;27.35;50.91;98002.19;2086620;28;20053;-51
2023/08/04 04:10:51;;;;;;;6.68;1.55;;;;;;;27.34;50.95;97997.03;2087399;28;20052;-50
2023/08/04 04:11:52;;;;;;;6.32;2.50;;;;;;;27.32;51.03;98002.72;2085065;28;20102;-54
2023/08/04 04:12:53;;;;;;;13.00;2.42;;;;;;;27.25;50.76;98002.22;2083395;28;20133;-51
2023/08/04 04:13:54;;;;;;;6.70;1.98;;;;;;;27.24;50.79;98000.56;2088002;28;20044;-51
2023/08/04 04:14:56;;;;;;;7.55;2.30;;;;;;;27.26;50.74;97997.59;2083198;28;20477;-50
2023/08/04 04:15:57;;;;;;;6.10;1.42;;;;;;;27.29;50.76;97997.84;2086254;28;20080;-50
2023/08/04 04:16:58;;;;;;;10.68;2.08;;;;;;;27.32;50.80;97991.84;2084993;28;20045;-53
2023/08/04 04:17:59;;;;;;;9.23;2.67;;;;;;;27.33;51.05;97998.09;2085821;28;20418;-51
2023/08/04 04:19:01;;;;;;;7.07;2.72;;;;;;;27.35;50.77;97996.72;2086279;28;20055;-51
2023/08/04 04:20:02;;;;;;;9.00;2.15;;;;;;;27.35;50.88;97998.63;2084812;28;20072;-50
2023/08/04 04:21:04;;;;;;;5.85;1.50;;;;;;;27.36;50.78;97994.84;2084967;28;20045;-53
2023/08/04 04:22:05;;;;;;;9.88;2.08;;;;;;;27.33;51.12;97992.66;2086524;28;20333;-52
2023/08/04 04:23:07;;;;;;;5.03;1.88;;;;;;;27.34;51.08;97986.94;2083854;28;20056;-51
2023/08/04 04:24:08;;;;;;;6.13;2.00;;;;;;;27.34;50.79;97995.09;2083786;28;20137;-53
2023/08/04 04:25:09;;;;;;;7.72;2.10;;;;;;;27.37;50.81;97989.09;2082714;28;20948;-53
2023/08/04 04:26:11;;;;;;;7.15;2.17;;;;;;;27.37;51.02;97989.09;2083551;28;20470;-49
2023/08/04 04:27:13;;;;;;;5.53;1.70;;;;;;;27.37;50.79;97991.84;2081867;28;20504;-52
2023/08/04 04:28:14;;;;;;;6.10;2.47;;;;;;;27.33;50.60;97982.59;2087229;28;20579;-53
2023/08/04 04:29:15;;;;;;;5.30;1.65;;;;;;;27.35;50.54;97985.84;2083441;28;20101;-54
2023/08/04 04:30:16;;;;;;;8.38;2.25;;;;;;;27.31;50.92;97990.22;2085468;28;20132;-54
2023/08/04 04:31:17;;;;;;;5.88;2.45;;;;;;;27.31;50.94;97987.50;2085212;28;20538;-52
2023/08/04 04:32:19;;;;;;;5.18;1.50;;;;;;;27.32;51.03;97991.84;2085968;28;20045;-52
2023/08/04 04:33:20;;;;;;;6.25;2.97;;;;;;;27.29;50.96;97986.13;2085888;28;20045;-53
2023/08/04 04:34:21;;;;;;;6.68;2.35;;;;;;;27.23;51.20;97981.81;2085749;28;20075;-49
2023/08/04 04:35:22;;;;;;;4.90;1.45;;;;;;;27.29;50.80;97978.78;2085320;28;20092;-50
2023/08/04 04:36:24;;;;;;;6.78;1.40;;;;;;;27.26;50.74;97973.88;2088742;28;20048;-53
2023/08/04 04:37:25;;;;;;;4.57;2.08;;;;;;;27.28;50.72;97968.19;2085331;28;20384;-54
2023/08/04 04:38:28;;;;;;;7.85;2.55;;;;;;;27.29;50.93;97967.06;2085887;28;20052;-51
2023/08/04 04:39:29;;;;;;;7.47;1.98;;;;;;;27.28;50.51;97971.72;2085709;28;20056;-50
2023/08/04 04:40:30;;;;;;;8.00;2.45;;;;;;;27.30;50.55;97963.25;2086721;28;20574;-50
2023/08/04 04:41:34;;;;;;;5.07;1.73;;;;;;;27.29;50.48;97957.00;2086845;28;20052;-53
2023/08/04 04:42:36;;;;;;;11.20;1.75;;;;;;;27.29;50.14;97967.88;2087091;28;21050;-53
2023/08/04 04:43:37;;;;;;;4.47;1.67;;;;;;;27.31;50.35;97957.53;2086211;28;20218;-52
2023/08/04 04:44:39;;;;;;;4.30;1.88;;;;;;;27.32;50.36;97961.06;2089348;28;20479;-55
2023/08/04 04:45:49;;;;;;;4.85;1.42;;;;;;;27.31;50.47;97965.72;2083343;28;20056;-51
2023/08/04 04:46:50;;;;;;;6.95;1.83;;;;;;;27.29;50.56;97969.81;2084434;28;20514;-53
2023/08/04 04:47:51;;;;;;;7.68;1.95;;;;;;;27.31;50.32;97968.44;2083304;28;20052;-51
2023/08/04 04:48:53;;;;;;;7.57;2.55;;;;;;;27.33;50.31;97971.69;2085419;28;20211;-52
2023/08/04 04:49:54;;;;;;;12.20;1.88;;;;;;;27.33;50.24;97970.88;2085390;28;20487;-52
2023/08/04 04:50:55;;;;;;;4.40;2.03;;;;;;;27.33;50.33;97962.69;2083475;28;20097;-49